sensor_id;sensor_type;location;lat;lon;timestamp;P1;durP1;ratioP1;P2;durP2;ratioP2
9689;SDS011;4884;42.614;23.340;2023-02-15T00:01:33;49.00;;;26.93;;
9689;SDS011;4884;42.614;23.340;2023-02-15T00:03:59;44.00;;;28.43;;
9689;SDS011;4884;42.614;23.340;2023-02-15T00:06:25;43.47;;;26.43;;
9689;SDS011;4884;42.614;23.340;2023-02-15T00:08:50;42.23;;;26.53;;
9689;SDS011;4884;42.614;23.340;2023-02-15T00:11:17;44.40;;;26.97;;
9689;SDS011;4884;42.614;23.340;2023-02-15T00:14:04;43.87;;;25.67;;
9689;SDS011;4884;42.614;23.340;2023-02-15T00:16:46;40.03;;;25.40;;
9689;SDS011;4884;42.614;23.340;2023-02-15T00:19:14;46.00;;;27.17;;
9689;SDS011;4884;42.614;23.340;2023-02-15T00:21:40;40.63;;;25.73;;
9689;SDS011;4884;42.614;23.340;2023-02-15T00:24:06;48.10;;;27.50;;
9689;SDS011;4884;42.614;23.340;2023-02-15T00:26:33;45.63;;;28.50;;
9689;SDS011;4884;42.614;23.340;2023-02-15T00:28:59;43.90;;;26.73;;
9689;SDS011;4884;42.614;23.340;2023-02-15T00:31:25;45.53;;;28.43;;
9689;SDS011;4884;42.614;23.340;2023-02-15T00:33:51;43.27;;;26.70;;
9689;SDS011;4884;42.614;23.340;2023-02-15T00:36:16;47.67;;;27.10;;
9689;SDS011;4884;42.614;23.340;2023-02-15T00:38:42;47.17;;;26.83;;
9689;SDS011;4884;42.614;23.340;2023-02-15T00:41:08;47.17;;;27.73;;
9689;SDS011;4884;42.614;23.340;2023-02-15T00:43:34;47.07;;;27.07;;
9689;SDS011;4884;42.614;23.340;2023-02-15T00:45:59;47.07;;;26.40;;
9689;SDS011;4884;42.614;23.340;2023-02-15T00:48:25;42.13;;;27.07;;
9689;SDS011;4884;42.614;23.340;2023-02-15T00:50:52;43.77;;;25.17;;
9689;SDS011;4884;42.614;23.340;2023-02-15T00:53:19;50.40;;;27.77;;
9689;SDS011;4884;42.614;23.340;2023-02-15T00:55:45;44.60;;;27.07;;
9689;SDS011;4884;42.614;23.340;2023-02-15T00:58:11;47.60;;;28.60;;
9689;SDS011;4884;42.614;23.340;2023-02-15T01:00:36;43.30;;;26.23;;
9689;SDS011;4884;42.614;23.340;2023-02-15T01:03:03;44.97;;;26.83;;
9689;SDS011;4884;42.614;23.340;2023-02-15T01:05:29;43.83;;;26.17;;
9689;SDS011;4884;42.614;23.340;2023-02-15T01:07:55;43.30;;;28.00;;
9689;SDS011;4884;42.614;23.340;2023-02-15T01:10:21;45.93;;;28.83;;
9689;SDS011;4884;42.614;23.340;2023-02-15T01:12:46;41.03;;;25.63;;
9689;SDS011;4884;42.614;23.340;2023-02-15T01:15:12;43.37;;;25.83;;
9689;SDS011;4884;42.614;23.340;2023-02-15T01:17:37;43.33;;;27.50;;
9689;SDS011;4884;42.614;23.340;2023-02-15T01:20:03;42.97;;;25.67;;
9689;SDS011;4884;42.614;23.340;2023-02-15T01:22:29;45.37;;;26.27;;
9689;SDS011;4884;42.614;23.340;2023-02-15T01:24:54;43.67;;;24.63;;
9689;SDS011;4884;42.614;23.340;2023-02-15T01:27:19;42.77;;;25.53;;
9689;SDS011;4884;42.614;23.340;2023-02-15T01:29:45;44.30;;;27.17;;
9689;SDS011;4884;42.614;23.340;2023-02-15T01:32:12;45.17;;;25.47;;
9689;SDS011;4884;42.614;23.340;2023-02-15T01:34:37;42.27;;;27.07;;
9689;SDS011;4884;42.614;23.340;2023-02-15T01:37:02;37.17;;;24.20;;
9689;SDS011;4884;42.614;23.340;2023-02-15T01:39:28;39.87;;;24.53;;
9689;SDS011;4884;42.614;23.340;2023-02-15T01:41:53;50.30;;;26.70;;
9689;SDS011;4884;42.614;23.340;2023-02-15T01:47:12;43.63;;;26.50;;
9689;SDS011;4884;42.614;23.340;2023-02-15T01:49:41;43.43;;;25.83;;
9689;SDS011;4884;42.614;23.340;2023-02-15T01:52:07;39.10;;;24.13;;
9689;SDS011;4884;42.614;23.340;2023-02-15T01:54:35;44.40;;;24.00;;
9689;SDS011;4884;42.614;23.340;2023-02-15T01:57:03;42.00;;;23.80;;
9689;SDS011;4884;42.614;23.340;2023-02-15T01:59:29;45.20;;;27.03;;
9689;SDS011;4884;42.614;23.340;2023-02-15T02:01:57;40.23;;;24.47;;
9689;SDS011;4884;42.614;23.340;2023-02-15T02:04:31;42.40;;;25.27;;
9689;SDS011;4884;42.614;23.340;2023-02-15T02:07:00;39.13;;;23.53;;
9689;SDS011;4884;42.614;23.340;2023-02-15T02:09:25;42.17;;;25.37;;
9689;SDS011;4884;42.614;23.340;2023-02-15T02:11:51;39.17;;;22.27;;
9689;SDS011;4884;42.614;23.340;2023-02-15T02:14:19;36.97;;;24.20;;
9689;SDS011;4884;42.614;23.340;2023-02-15T02:22:16;34.17;;;22.40;;
9689;SDS011;4884;42.614;23.340;2023-02-15T02:27:47;39.13;;;23.73;;
9689;SDS011;4884;42.614;23.340;2023-02-15T02:36:34;36.70;;;22.70;;
9689;SDS011;4884;42.614;23.340;2023-02-15T02:39:12;38.63;;;22.90;;
9689;SDS011;4884;42.614;23.340;2023-02-15T02:44:27;42.00;;;23.50;;
9689;SDS011;4884;42.614;23.340;2023-02-15T02:52:04;38.73;;;24.13;;
9689;SDS011;4884;42.614;23.340;2023-02-15T02:54:32;41.50;;;24.20;;
9689;SDS011;4884;42.614;23.340;2023-02-15T02:57:00;41.70;;;24.10;;
9689;SDS011;4884;42.614;23.340;2023-02-15T02:59:30;37.57;;;24.60;;
9689;SDS011;4884;42.614;23.340;2023-02-15T03:02:16;35.93;;;22.37;;
9689;SDS011;4884;42.614;23.340;2023-02-15T03:04:45;39.43;;;22.40;;
9689;SDS011;4884;42.614;23.340;2023-02-15T03:07:15;40.13;;;24.47;;
9689;SDS011;4884;42.614;23.340;2023-02-15T03:09:47;40.67;;;24.03;;
9689;SDS011;4884;42.614;23.340;2023-02-15T03:12:25;37.73;;;22.47;;
9689;SDS011;4884;42.614;23.340;2023-02-15T03:15:04;39.93;;;23.60;;
9689;SDS011;4884;42.614;23.340;2023-02-15T03:17:33;42.77;;;24.80;;
9689;SDS011;4884;42.614;23.340;2023-02-15T03:20:04;36.93;;;23.57;;
9689;SDS011;4884;42.614;23.340;2023-02-15T03:22:34;38.57;;;24.43;;
9689;SDS011;4884;42.614;23.340;2023-02-15T03:25:10;35.57;;;23.70;;
9689;SDS011;4884;42.614;23.340;2023-02-15T03:27:43;36.20;;;22.47;;
9689;SDS011;4884;42.614;23.340;2023-02-15T03:30:11;36.33;;;22.37;;
9689;SDS011;4884;42.614;23.340;2023-02-15T03:32:37;39.83;;;25.90;;
9689;SDS011;4884;42.614;23.340;2023-02-15T03:35:04;34.87;;;22.57;;
9689;SDS011;4884;42.614;23.340;2023-02-15T03:37:38;35.13;;;22.70;;
9689;SDS011;4884;42.614;23.340;2023-02-15T03:43:16;32.33;;;22.33;;
9689;SDS011;4884;42.614;23.340;2023-02-15T03:46:05;30.33;;;21.03;;
9689;SDS011;4884;42.614;23.340;2023-02-15T03:48:35;34.13;;;22.63;;
9689;SDS011;4884;42.614;23.340;2023-02-15T03:51:04;37.97;;;21.87;;
9689;SDS011;4884;42.614;23.340;2023-02-15T03:53:51;36.90;;;21.97;;
9689;SDS011;4884;42.614;23.340;2023-02-15T03:56:17;37.20;;;22.10;;
9689;SDS011;4884;42.614;23.340;2023-02-15T03:58:43;36.63;;;22.33;;
9689;SDS011;4884;42.614;23.340;2023-02-15T04:01:27;34.70;;;22.27;;
9689;SDS011;4884;42.614;23.340;2023-02-15T04:04:18;34.37;;;22.20;;
9689;SDS011;4884;42.614;23.340;2023-02-15T04:06:45;37.67;;;23.13;;
9689;SDS011;4884;42.614;23.340;2023-02-15T04:09:11;39.43;;;23.57;;
9689;SDS011;4884;42.614;23.340;2023-02-15T04:11:57;32.60;;;21.33;;
9689;SDS011;4884;42.614;23.340;2023-02-15T04:14:22;32.73;;;20.90;;
9689;SDS011;4884;42.614;23.340;2023-02-15T04:17:06;38.00;;;22.90;;
9689;SDS011;4884;42.614;23.340;2023-02-15T04:19:32;38.53;;;23.43;;
9689;SDS011;4884;42.614;23.340;2023-02-15T04:22:16;41.07;;;23.27;;
9689;SDS011;4884;42.614;23.340;2023-02-15T04:25:00;38.70;;;23.13;;
9689;SDS011;4884;42.614;23.340;2023-02-15T04:27:38;39.07;;;25.30;;
9689;SDS011;4884;42.614;23.340;2023-02-15T04:30:05;44.37;;;24.10;;
9689;SDS011;4884;42.614;23.340;2023-02-15T04:32:31;42.03;;;24.70;;
9689;SDS011;4884;42.614;23.340;2023-02-15T04:34:56;39.40;;;23.90;;
9689;SDS011;4884;42.614;23.340;2023-02-15T04:37:22;38.50;;;24.67;;
9689;SDS011;4884;42.614;23.340;2023-02-15T04:39:47;42.87;;;26.07;;
9689;SDS011;4884;42.614;23.340;2023-02-15T04:42:12;41.13;;;25.77;;
9689;SDS011;4884;42.614;23.340;2023-02-15T04:44:38;41.80;;;24.07;;
9689;SDS011;4884;42.614;23.340;2023-02-15T04:47:03;35.20;;;23.17;;
9689;SDS011;4884;42.614;23.340;2023-02-15T04:49:29;39.93;;;23.10;;
9689;SDS011;4884;42.614;23.340;2023-02-15T04:51:54;37.53;;;24.10;;
9689;SDS011;4884;42.614;23.340;2023-02-15T04:54:19;37.90;;;23.33;;
9689;SDS011;4884;42.614;23.340;2023-02-15T04:56:45;37.77;;;24.10;;
9689;SDS011;4884;42.614;23.340;2023-02-15T04:59:10;40.73;;;24.83;;
9689;SDS011;4884;42.614;23.340;2023-02-15T05:01:36;39.93;;;24.07;;
9689;SDS011;4884;42.614;23.340;2023-02-15T05:04:01;42.60;;;25.10;;
9689;SDS011;4884;42.614;23.340;2023-02-15T05:06:27;39.53;;;24.10;;
9689;SDS011;4884;42.614;23.340;2023-02-15T05:08:53;34.73;;;20.90;;
9689;SDS011;4884;42.614;23.340;2023-02-15T05:11:18;39.37;;;23.93;;
9689;SDS011;4884;42.614;23.340;2023-02-15T05:13:43;35.33;;;24.77;;
9689;SDS011;4884;42.614;23.340;2023-02-15T05:16:09;35.80;;;21.53;;
9689;SDS011;4884;42.614;23.340;2023-02-15T05:18:34;38.20;;;24.53;;
9689;SDS011;4884;42.614;23.340;2023-02-15T05:20:59;37.07;;;23.33;;
9689;SDS011;4884;42.614;23.340;2023-02-15T05:23:25;36.13;;;23.53;;
9689;SDS011;4884;42.614;23.340;2023-02-15T05:25:50;37.27;;;24.47;;
9689;SDS011;4884;42.614;23.340;2023-02-15T05:28:35;43.07;;;24.70;;
9689;SDS011;4884;42.614;23.340;2023-02-15T05:31:09;42.60;;;24.40;;
9689;SDS011;4884;42.614;23.340;2023-02-15T05:33:37;38.97;;;26.40;;
9689;SDS011;4884;42.614;23.340;2023-02-15T05:36:02;45.97;;;26.07;;
9689;SDS011;4884;42.614;23.340;2023-02-15T05:38:28;38.37;;;24.40;;
9689;SDS011;4884;42.614;23.340;2023-02-15T05:40:54;39.97;;;23.60;;
9689;SDS011;4884;42.614;23.340;2023-02-15T05:43:20;44.10;;;24.63;;
9689;SDS011;4884;42.614;23.340;2023-02-15T05:45:49;41.47;;;23.80;;
9689;SDS011;4884;42.614;23.340;2023-02-15T05:48:16;41.87;;;23.97;;
9689;SDS011;4884;42.614;23.340;2023-02-15T05:50:42;38.10;;;24.27;;
9689;SDS011;4884;42.614;23.340;2023-02-15T05:53:07;35.93;;;23.00;;
9689;SDS011;4884;42.614;23.340;2023-02-15T05:55:32;39.20;;;22.67;;
9689;SDS011;4884;42.614;23.340;2023-02-15T05:57:58;40.53;;;25.17;;
9689;SDS011;4884;42.614;23.340;2023-02-15T06:00:23;36.00;;;22.93;;
9689;SDS011;4884;42.614;23.340;2023-02-15T06:02:48;40.73;;;23.47;;
9689;SDS011;4884;42.614;23.340;2023-02-15T06:05:14;36.90;;;22.70;;
9689;SDS011;4884;42.614;23.340;2023-02-15T06:07:42;39.40;;;25.87;;
9689;SDS011;4884;42.614;23.340;2023-02-15T06:10:08;39.13;;;25.30;;
9689;SDS011;4884;42.614;23.340;2023-02-15T06:12:34;38.10;;;24.30;;
9689;SDS011;4884;42.614;23.340;2023-02-15T06:14:59;41.37;;;26.13;;
9689;SDS011;4884;42.614;23.340;2023-02-15T06:17:24;38.23;;;24.23;;
9689;SDS011;4884;42.614;23.340;2023-02-15T06:19:50;39.37;;;26.73;;
9689;SDS011;4884;42.614;23.340;2023-02-15T06:22:15;56.37;;;40.73;;
9689;SDS011;4884;42.614;23.340;2023-02-15T06:24:40;42.50;;;28.27;;
9689;SDS011;4884;42.614;23.340;2023-02-15T06:27:07;38.73;;;26.20;;
9689;SDS011;4884;42.614;23.340;2023-02-15T06:29:34;32.87;;;20.93;;
9689;SDS011;4884;42.614;23.340;2023-02-15T06:31:59;33.23;;;21.93;;
9689;SDS011;4884;42.614;23.340;2023-02-15T06:34:24;37.03;;;22.93;;
9689;SDS011;4884;42.614;23.340;2023-02-15T06:36:49;31.10;;;21.30;;
9689;SDS011;4884;42.614;23.340;2023-02-15T06:39:15;33.33;;;21.90;;
9689;SDS011;4884;42.614;23.340;2023-02-15T06:41:40;36.93;;;27.00;;
9689;SDS011;4884;42.614;23.340;2023-02-15T06:44:06;28.53;;;19.73;;
9689;SDS011;4884;42.614;23.340;2023-02-15T06:46:31;111.93;;;60.03;;
9689;SDS011;4884;42.614;23.340;2023-02-15T06:48:56;35.90;;;23.30;;
9689;SDS011;4884;42.614;23.340;2023-02-15T06:51:22;26.23;;;19.30;;
9689;SDS011;4884;42.614;23.340;2023-02-15T06:53:47;25.27;;;17.57;;
9689;SDS011;4884;42.614;23.340;2023-02-15T06:56:12;27.17;;;20.63;;
9689;SDS011;4884;42.614;23.340;2023-02-15T06:58:38;29.03;;;20.60;;
9689;SDS011;4884;42.614;23.340;2023-02-15T07:01:04;36.33;;;28.73;;
9689;SDS011;4884;42.614;23.340;2023-02-15T07:03:30;31.17;;;20.13;;
9689;SDS011;4884;42.614;23.340;2023-02-15T07:05:56;25.73;;;18.67;;
9689;SDS011;4884;42.614;23.340;2023-02-15T07:08:23;28.97;;;19.37;;
9689;SDS011;4884;42.614;23.340;2023-02-15T07:10:50;31.70;;;23.17;;
9689;SDS011;4884;42.614;23.340;2023-02-15T07:13:16;22.77;;;16.47;;
9689;SDS011;4884;42.614;23.340;2023-02-15T07:15:41;27.23;;;20.07;;
9689;SDS011;4884;42.614;23.340;2023-02-15T07:18:06;23.40;;;18.03;;
9689;SDS011;4884;42.614;23.340;2023-02-15T07:20:32;26.10;;;18.87;;
9689;SDS011;4884;42.614;23.340;2023-02-15T07:23:00;22.10;;;16.83;;
9689;SDS011;4884;42.614;23.340;2023-02-15T07:25:26;21.77;;;15.10;;
9689;SDS011;4884;42.614;23.340;2023-02-15T07:28:02;21.53;;;16.03;;
9689;SDS011;4884;42.614;23.340;2023-02-15T07:30:28;21.83;;;16.43;;
9689;SDS011;4884;42.614;23.340;2023-02-15T07:32:55;24.13;;;17.23;;
9689;SDS011;4884;42.614;23.340;2023-02-15T07:35:46;20.80;;;15.57;;
9689;SDS011;4884;42.614;23.340;2023-02-15T07:38:25;21.10;;;18.70;;
9689;SDS011;4884;42.614;23.340;2023-02-15T07:40:51;19.37;;;14.03;;
9689;SDS011;4884;42.614;23.340;2023-02-15T07:43:17;19.47;;;15.90;;
9689;SDS011;4884;42.614;23.340;2023-02-15T07:45:42;19.97;;;15.60;;
9689;SDS011;4884;42.614;23.340;2023-02-15T07:48:08;19.77;;;13.87;;
9689;SDS011;4884;42.614;23.340;2023-02-15T07:50:33;19.30;;;14.33;;
9689;SDS011;4884;42.614;23.340;2023-02-15T07:53:00;18.90;;;13.97;;
9689;SDS011;4884;42.614;23.340;2023-02-15T07:55:26;18.53;;;13.23;;
9689;SDS011;4884;42.614;23.340;2023-02-15T07:57:51;17.13;;;14.10;;
9689;SDS011;4884;42.614;23.340;2023-02-15T08:00:19;17.53;;;13.87;;
9689;SDS011;4884;42.614;23.340;2023-02-15T08:02:48;19.73;;;14.37;;
9689;SDS011;4884;42.614;23.340;2023-02-15T08:05:35;19.67;;;16.57;;
9689;SDS011;4884;42.614;23.340;2023-02-15T08:08:00;18.60;;;13.83;;
9689;SDS011;4884;42.614;23.340;2023-02-15T08:10:26;16.60;;;13.53;;
9689;SDS011;4884;42.614;23.340;2023-02-15T08:13:11;18.77;;;14.93;;
9689;SDS011;4884;42.614;23.340;2023-02-15T08:15:36;15.10;;;13.33;;
9689;SDS011;4884;42.614;23.340;2023-02-15T08:18:02;40.73;;;29.60;;
9689;SDS011;4884;42.614;23.340;2023-02-15T08:20:27;15.40;;;13.23;;
9689;SDS011;4884;42.614;23.340;2023-02-15T08:22:52;15.90;;;14.03;;
9689;SDS011;4884;42.614;23.340;2023-02-15T08:25:18;18.33;;;15.57;;
9689;SDS011;4884;42.614;23.340;2023-02-15T08:27:43;27.50;;;16.67;;
9689;SDS011;4884;42.614;23.340;2023-02-15T08:30:08;15.77;;;13.97;;
9689;SDS011;4884;42.614;23.340;2023-02-15T08:32:34;17.10;;;13.13;;
9689;SDS011;4884;42.614;23.340;2023-02-15T08:34:59;20.50;;;17.07;;
9689;SDS011;4884;42.614;23.340;2023-02-15T08:37:25;22.10;;;17.87;;
9689;SDS011;4884;42.614;23.340;2023-02-15T08:39:50;20.23;;;16.53;;
9689;SDS011;4884;42.614;23.340;2023-02-15T08:42:16;23.03;;;17.63;;
9689;SDS011;4884;42.614;23.340;2023-02-15T08:44:42;22.40;;;16.53;;
9689;SDS011;4884;42.614;23.340;2023-02-15T08:47:07;22.20;;;14.93;;
9689;SDS011;4884;42.614;23.340;2023-02-15T08:49:32;18.07;;;15.60;;
9689;SDS011;4884;42.614;23.340;2023-02-15T08:51:58;18.13;;;14.60;;
9689;SDS011;4884;42.614;23.340;2023-02-15T08:54:24;19.43;;;15.27;;
9689;SDS011;4884;42.614;23.340;2023-02-15T08:56:50;14.97;;;13.33;;
9689;SDS011;4884;42.614;23.340;2023-02-15T08:59:19;14.90;;;13.33;;
9689;SDS011;4884;42.614;23.340;2023-02-15T09:01:46;18.27;;;15.03;;
9689;SDS011;4884;42.614;23.340;2023-02-15T09:04:12;18.27;;;13.77;;
9689;SDS011;4884;42.614;23.340;2023-02-15T09:06:38;19.43;;;13.70;;
9689;SDS011;4884;42.614;23.340;2023-02-15T09:09:04;17.23;;;14.10;;
9689;SDS011;4884;42.614;23.340;2023-02-15T09:11:31;15.27;;;13.50;;
9689;SDS011;4884;42.614;23.340;2023-02-15T09:14:00;19.97;;;14.83;;
9689;SDS011;4884;42.614;23.340;2023-02-15T09:16:28;20.47;;;13.73;;
9689;SDS011;4884;42.614;23.340;2023-02-15T09:18:55;17.20;;;14.30;;
9689;SDS011;4884;42.614;23.340;2023-02-15T09:21:26;17.03;;;13.57;;
9689;SDS011;4884;42.614;23.340;2023-02-15T09:23:55;17.20;;;14.50;;
9689;SDS011;4884;42.614;23.340;2023-02-15T09:26:22;17.40;;;14.27;;
9689;SDS011;4884;42.614;23.340;2023-02-15T09:28:50;19.60;;;15.27;;
9689;SDS011;4884;42.614;23.340;2023-02-15T09:31:18;18.53;;;16.20;;
9689;SDS011;4884;42.614;23.340;2023-02-15T09:33:46;18.23;;;15.33;;
9689;SDS011;4884;42.614;23.340;2023-02-15T09:36:22;20.70;;;15.93;;
9689;SDS011;4884;42.614;23.340;2023-02-15T09:38:59;18.63;;;15.43;;
9689;SDS011;4884;42.614;23.340;2023-02-15T09:57:37;20.07;;;14.87;;
9689;SDS011;4884;42.614;23.340;2023-02-15T10:00:12;17.43;;;15.43;;
9689;SDS011;4884;42.614;23.340;2023-02-15T10:11:06;22.93;;;14.70;;
9689;SDS011;4884;42.614;23.340;2023-02-15T10:16:41;19.10;;;16.33;;
9689;SDS011;4884;42.614;23.340;2023-02-15T10:19:38;19.37;;;16.40;;
9689;SDS011;4884;42.614;23.340;2023-02-15T10:27:47;22.87;;;18.13;;
9689;SDS011;4884;42.614;23.340;2023-02-15T10:30:18;18.13;;;15.87;;
9689;SDS011;4884;42.614;23.340;2023-02-15T10:33:04;22.40;;;16.53;;
9689;SDS011;4884;42.614;23.340;2023-02-15T10:38:42;19.27;;;16.47;;
9689;SDS011;4884;42.614;23.340;2023-02-15T10:55:55;21.90;;;18.77;;
9689;SDS011;4884;42.614;23.340;2023-02-15T10:58:36;19.40;;;17.30;;
9689;SDS011;4884;42.614;23.340;2023-02-15T11:06:32;26.93;;;23.10;;
9689;SDS011;4884;42.614;23.340;2023-02-15T11:09:02;22.40;;;18.37;;
9689;SDS011;4884;42.614;23.340;2023-02-15T11:11:32;21.37;;;18.33;;
9689;SDS011;4884;42.614;23.340;2023-02-15T11:14:02;21.70;;;18.63;;
9689;SDS011;4884;42.614;23.340;2023-02-15T11:16:37;24.50;;;19.57;;
9689;SDS011;4884;42.614;23.340;2023-02-15T11:19:08;22.93;;;20.53;;
9689;SDS011;4884;42.614;23.340;2023-02-15T11:21:36;28.90;;;21.73;;
9689;SDS011;4884;42.614;23.340;2023-02-15T11:24:09;25.00;;;20.53;;
9689;SDS011;4884;42.614;23.340;2023-02-15T11:26:37;23.47;;;18.77;;
9689;SDS011;4884;42.614;23.340;2023-02-15T11:29:20;23.63;;;19.03;;
9689;SDS011;4884;42.614;23.340;2023-02-15T11:31:53;22.90;;;18.43;;
9689;SDS011;4884;42.614;23.340;2023-02-15T11:34:26;24.30;;;19.50;;
9689;SDS011;4884;42.614;23.340;2023-02-15T11:36:59;28.17;;;20.10;;
9689;SDS011;4884;42.614;23.340;2023-02-15T11:39:27;22.10;;;19.80;;
9689;SDS011;4884;42.614;23.340;2023-02-15T11:41:55;24.83;;;21.30;;
9689;SDS011;4884;42.614;23.340;2023-02-15T11:44:25;25.43;;;20.83;;
9689;SDS011;4884;42.614;23.340;2023-02-15T11:46:54;26.20;;;23.33;;
9689;SDS011;4884;42.614;23.340;2023-02-15T11:49:32;22.43;;;19.50;;
9689;SDS011;4884;42.614;23.340;2023-02-15T11:52:04;22.43;;;19.70;;
9689;SDS011;4884;42.614;23.340;2023-02-15T11:54:33;23.63;;;19.43;;
9689;SDS011;4884;42.614;23.340;2023-02-15T11:59:46;25.10;;;20.00;;
9689;SDS011;4884;42.614;23.340;2023-02-15T12:02:18;24.97;;;20.23;;
9689;SDS011;4884;42.614;23.340;2023-02-15T12:04:56;22.37;;;20.07;;
9689;SDS011;4884;42.614;23.340;2023-02-15T12:07:25;24.47;;;20.43;;
9689;SDS011;4884;42.614;23.340;2023-02-15T12:10:03;24.80;;;20.23;;
9689;SDS011;4884;42.614;23.340;2023-02-15T12:12:35;24.13;;;19.73;;
9689;SDS011;4884;42.614;23.340;2023-02-15T12:15:01;27.13;;;21.23;;
9689;SDS011;4884;42.614;23.340;2023-02-15T12:22:55;22.73;;;20.33;;
9689;SDS011;4884;42.614;23.340;2023-02-15T12:25:32;27.10;;;21.53;;
9689;SDS011;4884;42.614;23.340;2023-02-15T12:28:02;26.73;;;22.00;;
9689;SDS011;4884;42.614;23.340;2023-02-15T12:30:30;21.97;;;19.57;;
9689;SDS011;4884;42.614;23.340;2023-02-15T12:33:15;23.27;;;20.57;;
9689;SDS011;4884;42.614;23.340;2023-02-15T12:35:55;21.57;;;18.97;;
9689;SDS011;4884;42.614;23.340;2023-02-15T12:38:24;22.53;;;19.77;;
9689;SDS011;4884;42.614;23.340;2023-02-15T12:40:57;23.87;;;20.17;;
9689;SDS011;4884;42.614;23.340;2023-02-15T12:43:26;26.03;;;20.30;;
9689;SDS011;4884;42.614;23.340;2023-02-15T12:46:19;26.10;;;21.60;;
9689;SDS011;4884;42.614;23.340;2023-02-15T12:49:05;24.10;;;20.60;;
9689;SDS011;4884;42.614;23.340;2023-02-15T12:51:31;26.37;;;20.50;;
9689;SDS011;4884;42.614;23.340;2023-02-15T12:54:20;67.43;;;47.07;;
9689;SDS011;4884;42.614;23.340;2023-02-15T12:56:53;26.30;;;22.90;;
9689;SDS011;4884;42.614;23.340;2023-02-15T12:59:19;24.23;;;20.53;;
9689;SDS011;4884;42.614;23.340;2023-02-15T13:01:45;25.27;;;21.87;;
9689;SDS011;4884;42.614;23.340;2023-02-15T13:04:27;31.43;;;23.07;;
9689;SDS011;4884;42.614;23.340;2023-02-15T13:07:02;27.43;;;23.03;;
9689;SDS011;4884;42.614;23.340;2023-02-15T13:11:57;26.03;;;22.97;;
9689;SDS011;4884;42.614;23.340;2023-02-15T13:14:45;30.47;;;25.20;;
9689;SDS011;4884;42.614;23.340;2023-02-15T13:17:11;40.13;;;36.10;;
9689;SDS011;4884;42.614;23.340;2023-02-15T13:19:45;32.13;;;23.77;;
9689;SDS011;4884;42.614;23.340;2023-02-15T13:22:16;29.67;;;22.73;;
9689;SDS011;4884;42.614;23.340;2023-02-15T13:24:46;33.97;;;28.63;;
9689;SDS011;4884;42.614;23.340;2023-02-15T13:27:16;30.20;;;23.47;;
9689;SDS011;4884;42.614;23.340;2023-02-15T13:29:45;27.90;;;23.80;;
9689;SDS011;4884;42.614;23.340;2023-02-15T13:32:30;29.63;;;22.43;;
9689;SDS011;4884;42.614;23.340;2023-02-15T13:35:01;30.80;;;24.33;;
9689;SDS011;4884;42.614;23.340;2023-02-15T13:42:31;29.73;;;21.77;;
9689;SDS011;4884;42.614;23.340;2023-02-15T13:48:10;28.50;;;21.40;;
9689;SDS011;4884;42.614;23.340;2023-02-15T14:05:04;31.90;;;24.00;;
9689;SDS011;4884;42.614;23.340;2023-02-15T14:23:48;73.87;;;51.97;;
9689;SDS011;4884;42.614;23.340;2023-02-15T14:28:52;38.60;;;25.33;;
9689;SDS011;4884;42.614;23.340;2023-02-15T14:31:30;35.13;;;25.10;;
9689;SDS011;4884;42.614;23.340;2023-02-15T14:34:00;35.03;;;24.50;;
9689;SDS011;4884;42.614;23.340;2023-02-15T14:36:25;32.30;;;22.80;;
9689;SDS011;4884;42.614;23.340;2023-02-15T14:42:09;38.63;;;25.03;;
9689;SDS011;4884;42.614;23.340;2023-02-15T14:45:06;36.63;;;25.17;;
9689;SDS011;4884;42.614;23.340;2023-02-15T14:47:40;38.93;;;25.20;;
9689;SDS011;4884;42.614;23.340;2023-02-15T14:50:53;36.50;;;26.43;;
9689;SDS011;4884;42.614;23.340;2023-02-15T14:58:37;50.87;;;33.17;;
9689;SDS011;4884;42.614;23.340;2023-02-15T15:01:04;43.83;;;29.93;;
9689;SDS011;4884;42.614;23.340;2023-02-15T15:03:31;43.60;;;29.07;;
9689;SDS011;4884;42.614;23.340;2023-02-15T15:05:56;38.77;;;27.77;;
9689;SDS011;4884;42.614;23.340;2023-02-15T15:08:29;43.33;;;28.40;;
9689;SDS011;4884;42.614;23.340;2023-02-15T15:11:36;50.13;;;33.83;;
9689;SDS011;4884;42.614;23.340;2023-02-15T15:13:56;48.53;;;34.03;;
9689;SDS011;4884;42.614;23.340;2023-02-15T15:19:09;72.63;;;50.83;;
9689;SDS011;4884;42.614;23.340;2023-02-15T15:49:12;61.93;;;38.27;;
9689;SDS011;4884;42.614;23.340;2023-02-15T15:51:41;55.13;;;32.90;;
9689;SDS011;4884;42.614;23.340;2023-02-15T15:54:11;60.60;;;33.27;;
9689;SDS011;4884;42.614;23.340;2023-02-15T15:56:39;58.77;;;38.43;;
9689;SDS011;4884;42.614;23.340;2023-02-15T15:59:12;64.97;;;38.23;;
9689;SDS011;4884;42.614;23.340;2023-02-15T16:01:43;50.83;;;32.70;;
9689;SDS011;4884;42.614;23.340;2023-02-15T16:04:12;102.13;;;54.70;;
9689;SDS011;4884;42.614;23.340;2023-02-15T16:06:40;85.43;;;50.60;;
9689;SDS011;4884;42.614;23.340;2023-02-15T16:09:25;68.90;;;43.83;;
9689;SDS011;4884;42.614;23.340;2023-02-15T16:11:55;64.93;;;41.50;;
9689;SDS011;4884;42.614;23.340;2023-02-15T16:14:36;133.80;;;69.20;;
9689;SDS011;4884;42.614;23.340;2023-02-15T16:17:07;163.67;;;91.30;;
9689;SDS011;4884;42.614;23.340;2023-02-15T16:19:38;93.03;;;61.70;;
9689;SDS011;4884;42.614;23.340;2023-02-15T16:22:07;151.47;;;79.93;;
9689;SDS011;4884;42.614;23.340;2023-02-15T16:27:36;47.23;;;28.93;;
9689;SDS011;4884;42.614;23.340;2023-02-15T16:32:47;109.77;;;57.80;;
9689;SDS011;4884;42.614;23.340;2023-02-15T16:35:16;89.40;;;48.27;;
9689;SDS011;4884;42.614;23.340;2023-02-15T16:37:43;129.30;;;62.60;;
9689;SDS011;4884;42.614;23.340;2023-02-15T16:42:50;54.33;;;36.17;;
9689;SDS011;4884;42.614;23.340;2023-02-15T16:45:18;57.50;;;36.80;;
9689;SDS011;4884;42.614;23.340;2023-02-15T16:47:45;198.80;;;95.17;;
9689;SDS011;4884;42.614;23.340;2023-02-15T16:50:23;123.47;;;69.10;;
9689;SDS011;4884;42.614;23.340;2023-02-15T16:52:51;45.53;;;29.27;;
9689;SDS011;4884;42.614;23.340;2023-02-15T16:55:24;50.87;;;31.17;;
9689;SDS011;4884;42.614;23.340;2023-02-15T16:57:51;78.43;;;45.77;;
9689;SDS011;4884;42.614;23.340;2023-02-15T17:00:21;132.93;;;67.90;;
9689;SDS011;4884;42.614;23.340;2023-02-15T17:02:58;94.97;;;52.97;;
9689;SDS011;4884;42.614;23.340;2023-02-15T17:05:47;70.90;;;43.90;;
9689;SDS011;4884;42.614;23.340;2023-02-15T17:08:16;109.87;;;56.67;;
9689;SDS011;4884;42.614;23.340;2023-02-15T17:11:04;51.00;;;30.17;;
9689;SDS011;4884;42.614;23.340;2023-02-15T17:13:34;58.50;;;34.33;;
9689;SDS011;4884;42.614;23.340;2023-02-15T17:21:18;66.10;;;38.33;;
9689;SDS011;4884;42.614;23.340;2023-02-15T17:23:46;55.17;;;36.07;;
9689;SDS011;4884;42.614;23.340;2023-02-15T17:26:16;80.73;;;48.90;;
9689;SDS011;4884;42.614;23.340;2023-02-15T17:28:45;44.40;;;30.10;;
9689;SDS011;4884;42.614;23.340;2023-02-15T17:31:13;44.27;;;29.23;;
9689;SDS011;4884;42.614;23.340;2023-02-15T17:33:40;98.97;;;58.47;;
9689;SDS011;4884;42.614;23.340;2023-02-15T17:38:37;71.13;;;40.70;;
9689;SDS011;4884;42.614;23.340;2023-02-15T17:41:03;89.47;;;49.13;;
9689;SDS011;4884;42.614;23.340;2023-02-15T17:43:29;85.97;;;47.87;;
9689;SDS011;4884;42.614;23.340;2023-02-15T17:45:54;131.10;;;64.90;;
9689;SDS011;4884;42.614;23.340;2023-02-15T17:48:22;73.33;;;42.53;;
9689;SDS011;4884;42.614;23.340;2023-02-15T17:51:06;129.77;;;69.83;;
9689;SDS011;4884;42.614;23.340;2023-02-15T17:53:36;77.13;;;40.90;;
9689;SDS011;4884;42.614;23.340;2023-02-15T17:56:02;114.53;;;60.37;;
9689;SDS011;4884;42.614;23.340;2023-02-15T17:58:34;96.23;;;53.93;;
9689;SDS011;4884;42.614;23.340;2023-02-15T18:01:00;65.53;;;36.07;;